EQX777 LROP-LSZH
Flight info
| Callsign | EQX777 |
|---|---|
| Flight time | 2h 17m |
| Altitude | 36000 |
| Route | POLUN DCT DIRER DCT NIVIS DCT BEDOX DCT ERKIR DCT KPT/N0415F300 L856 NEGRA |
| Aircraft | A320/M-SDE3FGHIRWY/LB1 |
Departure
| Time | 2026-05-07 09:33 |
|---|---|
| Airport | Bucharest Henri Coandă International Airport (LROP) |
Arrival
| Time | 2026-05-07 11:50 |
|---|---|
| Airport | Zürich Airport (LSZH) |
| Time | Latitude | Longitude | Altitude | Speed | Heading |
|---|---|---|---|---|---|
| 2026-05-07 08:31 | 44.57027 | 26.08197 | 323 ft | 0 kts | 354° |
| 2026-05-07 09:20 | 44.57019 | 26.08199 | 322 ft | 2 kts | 353° |
| 2026-05-07 09:20 | 44.57003 | 26.08201 | 322 ft | 2 kts | 352° |
| 2026-05-07 09:21 | 44.56986 | 26.08203 | 320 ft | 2 kts | 355° |
| 2026-05-07 09:21 | 44.56970 | 26.08205 | 321 ft | 2 kts | 359° |
| 2026-05-07 09:21 | 44.56954 | 26.08205 | 322 ft | 2 kts | 11° |
| 2026-05-07 09:21 | 44.56940 | 26.08194 | 320 ft | 2 kts | 95° |
| 2026-05-07 09:22 | 44.56941 | 26.08190 | 320 ft | 0 kts | 78° |
| 2026-05-07 09:24 | 44.56941 | 26.08191 | 322 ft | 1 kts | 79° |
| 2026-05-07 09:25 | 44.56943 | 26.08207 | 321 ft | 3 kts | 81° |
| 2026-05-07 09:25 | 44.56947 | 26.08244 | 322 ft | 5 kts | 82° |
| 2026-05-07 09:25 | 44.56952 | 26.08302 | 322 ft | 7 kts | 82° |
| 2026-05-07 09:25 | 44.56939 | 26.08377 | 322 ft | 9 kts | 124° |
| 2026-05-07 09:26 | 44.56899 | 26.08448 | 321 ft | 2 kts | 109° |
| 2026-05-07 09:26 | 44.56897 | 26.08451 | 321 ft | 1 kts | 130° |
| 2026-05-07 09:26 | 44.56893 | 26.08451 | 322 ft | 1 kts | 156° |
| 2026-05-07 09:27 | 44.56889 | 26.08448 | 322 ft | 0 kts | 194° |
| 2026-05-07 09:27 | 44.56886 | 26.08446 | 322 ft | 1 kts | 204° |
| 2026-05-07 09:27 | 44.56868 | 26.08397 | 322 ft | 5 kts | 247° |
| 2026-05-07 09:28 | 44.56854 | 26.08346 | 322 ft | 6 kts | 249° |
| 2026-05-07 09:28 | 44.56836 | 26.08280 | 322 ft | 8 kts | 248° |
| 2026-05-07 09:28 | 44.56811 | 26.08199 | 322 ft | 10 kts | 242° |
| 2026-05-07 09:28 | 44.56777 | 26.08108 | 322 ft | 11 kts | 247° |
| 2026-05-07 09:29 | 44.56753 | 26.07996 | 322 ft | 13 kts | 254° |
| 2026-05-07 09:29 | 44.56726 | 26.07868 | 321 ft | 14 kts | 254° |
| 2026-05-07 09:29 | 44.56698 | 26.07725 | 322 ft | 16 kts | 251° |
| 2026-05-07 09:29 | 44.56606 | 26.07670 | 322 ft | 16 kts | 173° |
| 2026-05-07 09:30 | 44.56589 | 26.07673 | 322 ft | 0 kts | 173° |
| 2026-05-07 09:31 | 44.56586 | 26.07673 | 322 ft | 1 kts | 173° |
| 2026-05-07 09:31 | 44.56571 | 26.07675 | 322 ft | 3 kts | 173° |
| 2026-05-07 09:31 | 44.56543 | 26.07680 | 320 ft | 5 kts | 173° |
| 2026-05-07 09:32 | 44.56502 | 26.07686 | 323 ft | 7 kts | 173° |
| 2026-05-07 09:32 | 44.56473 | 26.07727 | 321 ft | 6 kts | 109° |
| 2026-05-07 09:32 | 44.56473 | 26.07799 | 323 ft | 10 kts | 86° |
| 2026-05-07 09:32 | 44.56506 | 26.08207 | 324 ft | 76 kts | 83° |
| 2026-05-07 09:33 | 44.56583 | 26.09206 | 322 ft | 128 kts | 83° |
| 2026-05-07 09:33 | 44.56699 | 26.10644 | 338 ft | 167 kts | 83° |
| 2026-05-07 09:33 | 44.56843 | 26.12347 | 647 ft | 183 kts | 84° |
| 2026-05-07 09:33 | 44.56994 | 26.14189 | 1060 ft | 198 kts | 84° |
| 2026-05-07 09:34 | 44.57152 | 26.16203 | 1458 ft | 219 kts | 85° |
| 2026-05-07 09:34 | 44.57315 | 26.18434 | 2050 ft | 238 kts | 86° |
| 2026-05-07 09:34 | 44.57484 | 26.20824 | 2791 ft | 253 kts | 85° |
| 2026-05-07 09:34 | 44.57659 | 26.23318 | 3699 ft | 261 kts | 85° |
| 2026-05-07 09:35 | 44.57845 | 26.25898 | 4543 ft | 269 kts | 84° |
| 2026-05-07 09:35 | 44.57970 | 26.27646 | 4867 ft | 275 kts | 86° |
| 2026-05-07 09:35 | 44.57770 | 26.30315 | 5021 ft | 278 kts | 110° |
| 2026-05-07 09:35 | 44.56233 | 26.33096 | 5077 ft | 276 kts | 148° |
| 2026-05-07 09:36 | 44.55064 | 26.33851 | 5067 ft | 274 kts | 167° |
| 2026-05-07 09:36 | 44.53169 | 26.34211 | 5076 ft | 275 kts | 175° |
| 2026-05-07 09:36 | 44.51240 | 26.34479 | 5417 ft | 283 kts | 175° |
| 2026-05-07 09:36 | 44.49286 | 26.34751 | 6418 ft | 282 kts | 176° |
| 2026-05-07 09:37 | 44.47319 | 26.35029 | 7272 ft | 285 kts | 175° |
| 2026-05-07 09:37 | 44.45364 | 26.35308 | 8134 ft | 287 kts | 175° |
| 2026-05-07 09:37 | 44.43375 | 26.35593 | 9033 ft | 288 kts | 175° |
| 2026-05-07 09:37 | 44.41363 | 26.35768 | 9783 ft | 291 kts | 184° |
| 2026-05-07 09:38 | 44.39387 | 26.35233 | 10010 ft | 289 kts | 201° |
| 2026-05-07 09:38 | 44.37587 | 26.33872 | 10071 ft | 309 kts | 218° |
| 2026-05-07 09:38 | 44.36070 | 26.31678 | 10115 ft | 324 kts | 236° |
| 2026-05-07 09:38 | 44.35083 | 26.28804 | 10698 ft | 332 kts | 253° |
| 2026-05-07 09:39 | 44.34433 | 26.25697 | 11415 ft | 335 kts | 253° |
| 2026-05-07 09:39 | 44.33779 | 26.22551 | 12132 ft | 339 kts | 253° |
| 2026-05-07 09:39 | 44.33122 | 26.19378 | 12841 ft | 342 kts | 253° |
| 2026-05-07 09:39 | 44.32457 | 26.16162 | 13546 ft | 345 kts | 253° |
| 2026-05-07 09:40 | 44.31788 | 26.12928 | 14171 ft | 348 kts | 253° |
| 2026-05-07 09:40 | 44.31109 | 26.09659 | 14776 ft | 351 kts | 253° |
| 2026-05-07 09:40 | 44.30426 | 26.06373 | 15365 ft | 354 kts | 253° |
| 2026-05-07 09:40 | 44.29745 | 26.03087 | 15953 ft | 357 kts | 253° |
| 2026-05-07 09:41 | 44.29049 | 25.99738 | 16531 ft | 360 kts | 253° |
| 2026-05-07 09:41 | 44.28348 | 25.96366 | 17113 ft | 363 kts | 253° |
| 2026-05-07 09:41 | 44.27639 | 25.92970 | 17684 ft | 366 kts | 254° |
| 2026-05-07 09:41 | 44.26924 | 25.89546 | 18277 ft | 369 kts | 254° |
| 2026-05-07 09:42 | 44.26200 | 25.86103 | 18801 ft | 371 kts | 254° |
| 2026-05-07 09:42 | 44.25470 | 25.82636 | 19333 ft | 374 kts | 254° |
| 2026-05-07 09:42 | 44.24738 | 25.79149 | 19862 ft | 376 kts | 255° |
| 2026-05-07 09:42 | 44.24226 | 25.75564 | 20376 ft | 378 kts | 265° |
| 2026-05-07 09:43 | 44.24145 | 25.71898 | 20901 ft | 380 kts | 270° |
| 2026-05-07 09:43 | 44.24131 | 25.68206 | 21437 ft | 381 kts | 270° |
| 2026-05-07 09:43 | 44.24109 | 25.64493 | 21949 ft | 383 kts | 270° |
| 2026-05-07 09:43 | 44.24084 | 25.60778 | 22453 ft | 385 kts | 270° |
| 2026-05-07 09:44 | 44.24056 | 25.57032 | 22953 ft | 386 kts | 270° |
| 2026-05-07 09:44 | 44.24026 | 25.53279 | 23436 ft | 388 kts | 270° |
| 2026-05-07 09:44 | 44.23993 | 25.49508 | 23866 ft | 390 kts | 270° |
| 2026-05-07 09:44 | 44.23961 | 25.45721 | 24267 ft | 392 kts | 270° |
| 2026-05-07 09:45 | 44.23928 | 25.41910 | 24663 ft | 394 kts | 270° |
| 2026-05-07 09:45 | 44.23895 | 25.38088 | 25053 ft | 395 kts | 270° |
| 2026-05-07 09:45 | 44.23859 | 25.34291 | 25443 ft | 397 kts | 270° |
| 2026-05-07 09:45 | 44.23820 | 25.30432 | 25842 ft | 399 kts | 270° |
| 2026-05-07 09:46 | 44.23780 | 25.26554 | 26224 ft | 400 kts | 270° |
| 2026-05-07 09:46 | 44.23896 | 25.22675 | 26599 ft | 401 kts | 278° |
| 2026-05-07 09:46 | 44.24489 | 25.18869 | 26966 ft | 403 kts | 287° |
| 2026-05-07 09:46 | 44.25315 | 25.15126 | 27338 ft | 404 kts | 287° |
| 2026-05-07 09:47 | 44.26134 | 25.11367 | 27710 ft | 406 kts | 287° |
| 2026-05-07 09:47 | 44.26949 | 25.07577 | 28091 ft | 408 kts | 286° |
| 2026-05-07 09:47 | 44.27762 | 25.03765 | 28457 ft | 410 kts | 286° |
| 2026-05-07 09:47 | 44.28563 | 24.99993 | 28831 ft | 411 kts | 286° |
| 2026-05-07 09:48 | 44.29374 | 24.96159 | 29205 ft | 413 kts | 286° |
| 2026-05-07 09:48 | 44.30190 | 24.92292 | 29573 ft | 415 kts | 286° |
| 2026-05-07 09:48 | 44.31008 | 24.88425 | 29934 ft | 417 kts | 286° |
| 2026-05-07 09:48 | 44.31835 | 24.84535 | 30332 ft | 417 kts | 286° |
| 2026-05-07 09:49 | 44.32658 | 24.80670 | 30783 ft | 414 kts | 286° |
| 2026-05-07 09:49 | 44.33478 | 24.76812 | 31246 ft | 412 kts | 286° |
| 2026-05-07 09:49 | 44.34292 | 24.72975 | 31689 ft | 410 kts | 286° |
| 2026-05-07 09:49 | 44.35098 | 24.69172 | 32167 ft | 408 kts | 286° |
| 2026-05-07 09:50 | 44.35902 | 24.65367 | 32632 ft | 406 kts | 285° |
| 2026-05-07 09:50 | 44.36698 | 24.61592 | 33103 ft | 404 kts | 285° |
| 2026-05-07 09:50 | 44.37491 | 24.57829 | 33572 ft | 403 kts | 285° |
| 2026-05-07 09:50 | 44.38276 | 24.54082 | 34052 ft | 401 kts | 285° |
| 2026-05-07 09:51 | 44.39025 | 24.50480 | 34409 ft | 399 kts | 285° |
| 2026-05-07 09:51 | 44.39790 | 24.46790 | 34730 ft | 399 kts | 285° |
| 2026-05-07 09:51 | 44.40559 | 24.43065 | 35025 ft | 400 kts | 285° |
| 2026-05-07 09:51 | 44.41335 | 24.39320 | 35310 ft | 400 kts | 285° |
| 2026-05-07 09:52 | 44.42111 | 24.35584 | 35588 ft | 401 kts | 285° |
| 2026-05-07 09:52 | 44.42890 | 24.31839 | 35865 ft | 401 kts | 285° |
| 2026-05-07 09:52 | 44.43668 | 24.28086 | 36043 ft | 403 kts | 285° |
| 2026-05-07 09:53 | 44.45242 | 24.20475 | 36075 ft | 409 kts | 285° |
| 2026-05-07 09:53 | 44.46816 | 24.12813 | 36082 ft | 410 kts | 285° |
| 2026-05-07 09:54 | 44.48385 | 24.05131 | 36081 ft | 410 kts | 285° |
| 2026-05-07 09:54 | 44.49944 | 23.97486 | 36082 ft | 410 kts | 284° |
| 2026-05-07 09:55 | 44.51506 | 23.89795 | 36084 ft | 410 kts | 284° |
| 2026-05-07 09:55 | 44.53065 | 23.82106 | 36087 ft | 410 kts | 284° |
| 2026-05-07 09:56 | 44.54619 | 23.74404 | 36087 ft | 410 kts | 284° |
| 2026-05-07 09:56 | 44.56163 | 23.66695 | 36091 ft | 410 kts | 284° |
| 2026-05-07 09:57 | 44.57698 | 23.58991 | 36103 ft | 410 kts | 284° |
| 2026-05-07 09:57 | 44.59232 | 23.51268 | 36102 ft | 411 kts | 284° |
| 2026-05-07 09:58 | 44.60769 | 23.43548 | 36111 ft | 411 kts | 284° |
| 2026-05-07 09:58 | 44.62303 | 23.35825 | 36109 ft | 411 kts | 283° |
| 2026-05-07 09:59 | 44.63822 | 23.28087 | 36117 ft | 411 kts | 283° |
| 2026-05-07 09:59 | 44.65333 | 23.20358 | 36121 ft | 411 kts | 283° |
| 2026-05-07 10:00 | 44.66841 | 23.12668 | 36125 ft | 411 kts | 283° |
| 2026-05-07 10:00 | 44.68348 | 23.04927 | 36123 ft | 410 kts | 283° |
| 2026-05-07 10:01 | 44.69842 | 22.97189 | 36123 ft | 410 kts | 282° |
| 2026-05-07 10:01 | 44.71337 | 22.89446 | 36120 ft | 410 kts | 282° |
| 2026-05-07 10:02 | 44.72822 | 22.81717 | 36122 ft | 410 kts | 282° |
| 2026-05-07 10:02 | 44.74306 | 22.73961 | 36119 ft | 410 kts | 282° |
| 2026-05-07 10:03 | 44.75787 | 22.66207 | 36119 ft | 410 kts | 282° |
| 2026-05-07 10:03 | 44.77263 | 22.58457 | 36112 ft | 410 kts | 282° |
| 2026-05-07 10:04 | 44.78724 | 22.50742 | 36113 ft | 410 kts | 282° |
| 2026-05-07 10:04 | 44.80184 | 22.42969 | 36120 ft | 411 kts | 282° |
| 2026-05-07 10:05 | 44.81642 | 22.35181 | 36118 ft | 411 kts | 282° |
| 2026-05-07 10:05 | 44.83096 | 22.27390 | 36110 ft | 411 kts | 282° |
| 2026-05-07 10:06 | 44.84546 | 22.19593 | 36106 ft | 411 kts | 282° |
| 2026-05-07 10:06 | 44.85989 | 22.11793 | 36101 ft | 411 kts | 282° |
| 2026-05-07 10:07 | 44.87432 | 22.03978 | 36092 ft | 411 kts | 282° |
| 2026-05-07 10:07 | 44.88859 | 21.96211 | 36085 ft | 412 kts | 281° |
| 2026-05-07 10:08 | 44.90287 | 21.88385 | 36086 ft | 412 kts | 281° |
| 2026-05-07 10:08 | 44.91717 | 21.80543 | 36086 ft | 413 kts | 281° |
| 2026-05-07 10:09 | 44.93148 | 21.72684 | 36070 ft | 413 kts | 281° |
| 2026-05-07 10:09 | 44.94564 | 21.64832 | 36077 ft | 413 kts | 281° |
| 2026-05-07 10:10 | 44.95976 | 21.56964 | 36075 ft | 413 kts | 281° |
| 2026-05-07 10:10 | 44.97387 | 21.49080 | 36078 ft | 414 kts | 281° |
| 2026-05-07 10:11 | 44.98783 | 21.41232 | 36079 ft | 414 kts | 281° |
| 2026-05-07 10:11 | 45.00151 | 21.33348 | 36081 ft | 414 kts | 281° |
| 2026-05-07 10:12 | 45.01487 | 21.25428 | 36074 ft | 414 kts | 280° |
| 2026-05-07 10:12 | 45.02805 | 21.17521 | 36077 ft | 414 kts | 280° |
| 2026-05-07 10:13 | 45.04132 | 21.09593 | 36067 ft | 414 kts | 280° |
| 2026-05-07 10:13 | 45.05461 | 21.01676 | 36077 ft | 414 kts | 280° |
| 2026-05-07 10:14 | 45.06781 | 20.93747 | 36070 ft | 413 kts | 280° |
| 2026-05-07 10:14 | 45.08101 | 20.85812 | 36079 ft | 413 kts | 280° |
| 2026-05-07 10:15 | 45.09400 | 20.77956 | 36065 ft | 413 kts | 280° |
| 2026-05-07 10:15 | 45.10694 | 20.70047 | 36075 ft | 412 kts | 279° |
| 2026-05-07 10:16 | 45.11981 | 20.62132 | 36074 ft | 412 kts | 279° |
| 2026-05-07 10:16 | 45.13270 | 20.54224 | 36072 ft | 412 kts | 279° |
| 2026-05-07 10:17 | 45.14561 | 20.46303 | 36071 ft | 412 kts | 279° |
| 2026-05-07 10:17 | 45.15835 | 20.38384 | 36071 ft | 412 kts | 279° |
| 2026-05-07 10:18 | 45.17106 | 20.30460 | 36071 ft | 413 kts | 279° |
| 2026-05-07 10:18 | 45.18374 | 20.22517 | 36070 ft | 413 kts | 279° |
| 2026-05-07 10:19 | 45.19631 | 20.14584 | 36070 ft | 412 kts | 279° |
| 2026-05-07 10:19 | 45.20885 | 20.06637 | 36070 ft | 412 kts | 279° |
| 2026-05-07 10:20 | 45.22130 | 19.98747 | 36065 ft | 412 kts | 279° |
| 2026-05-07 10:20 | 45.23376 | 19.90801 | 36065 ft | 412 kts | 279° |
| 2026-05-07 10:21 | 45.24606 | 19.82857 | 36065 ft | 412 kts | 279° |
| 2026-05-07 10:21 | 45.26261 | 19.75046 | 36064 ft | 416 kts | 288° |
| 2026-05-07 10:22 | 45.28394 | 19.67425 | 36065 ft | 416 kts | 288° |
| 2026-05-07 10:22 | 45.30155 | 19.61051 | 36064 ft | 416 kts | 288° |
| 2026-05-07 10:23 | 45.32256 | 19.53397 | 36065 ft | 416 kts | 287° |
| 2026-05-07 10:23 | 45.34363 | 19.45727 | 36064 ft | 416 kts | 287° |
| 2026-05-07 10:24 | 45.36466 | 19.38056 | 36061 ft | 416 kts | 287° |
| 2026-05-07 10:24 | 45.38561 | 19.30384 | 36065 ft | 416 kts | 287° |
| 2026-05-07 10:25 | 45.40647 | 19.22700 | 36072 ft | 416 kts | 287° |
| 2026-05-07 10:25 | 45.42734 | 19.15001 | 36078 ft | 416 kts | 287° |
| 2026-05-07 10:26 | 45.44813 | 19.07316 | 36069 ft | 416 kts | 287° |
| 2026-05-07 10:26 | 45.46886 | 18.99630 | 36077 ft | 415 kts | 287° |
| 2026-05-07 10:27 | 45.48952 | 18.91938 | 36079 ft | 415 kts | 287° |
| 2026-05-07 10:27 | 45.51007 | 18.84258 | 36085 ft | 415 kts | 287° |
| 2026-05-07 10:28 | 45.53054 | 18.76608 | 36082 ft | 414 kts | 287° |
| 2026-05-07 10:28 | 45.55100 | 18.68937 | 36077 ft | 414 kts | 286° |
| 2026-05-07 10:29 | 45.57140 | 18.61243 | 36076 ft | 414 kts | 286° |
| 2026-05-07 10:29 | 45.59164 | 18.53557 | 36070 ft | 413 kts | 286° |
| 2026-05-07 10:30 | 45.62199 | 18.42024 | 36064 ft | 413 kts | 286° |
| 2026-05-07 10:30 | 45.64205 | 18.34383 | 36059 ft | 413 kts | 286° |
| 2026-05-07 10:31 | 45.66214 | 18.26691 | 36059 ft | 413 kts | 286° |
| 2026-05-07 10:31 | 45.68214 | 18.18990 | 36059 ft | 413 kts | 285° |
| 2026-05-07 10:32 | 45.70211 | 18.11299 | 36060 ft | 413 kts | 285° |
| 2026-05-07 10:32 | 45.72206 | 18.03595 | 36061 ft | 412 kts | 285° |
| 2026-05-07 10:33 | 45.74195 | 17.95892 | 36056 ft | 412 kts | 285° |
| 2026-05-07 10:33 | 45.76179 | 17.88179 | 36064 ft | 413 kts | 285° |
| 2026-05-07 10:34 | 45.78142 | 17.80505 | 36058 ft | 413 kts | 285° |
| 2026-05-07 10:34 | 45.80113 | 17.72792 | 36059 ft | 412 kts | 285° |
| 2026-05-07 10:35 | 45.82082 | 17.65069 | 36062 ft | 412 kts | 285° |
| 2026-05-07 10:35 | 45.84043 | 17.57345 | 36061 ft | 412 kts | 285° |
| 2026-05-07 10:36 | 45.85993 | 17.49619 | 36058 ft | 412 kts | 285° |
| 2026-05-07 10:36 | 45.87937 | 17.41884 | 36060 ft | 412 kts | 285° |
| 2026-05-07 10:37 | 45.89876 | 17.34145 | 36058 ft | 412 kts | 285° |
| 2026-05-07 10:37 | 45.91812 | 17.26390 | 36064 ft | 413 kts | 285° |
| 2026-05-07 10:38 | 45.93751 | 17.18626 | 36061 ft | 413 kts | 285° |
| 2026-05-07 10:38 | 45.95672 | 17.10904 | 36064 ft | 413 kts | 285° |
| 2026-05-07 10:39 | 45.97599 | 17.03125 | 36065 ft | 413 kts | 285° |
| 2026-05-07 10:39 | 45.99522 | 16.95345 | 36064 ft | 413 kts | 285° |
| 2026-05-07 10:40 | 46.01442 | 16.87558 | 36056 ft | 413 kts | 285° |
| 2026-05-07 10:40 | 46.03343 | 16.79781 | 36057 ft | 412 kts | 285° |
| 2026-05-07 10:41 | 46.05248 | 16.71976 | 36056 ft | 412 kts | 285° |
| 2026-05-07 10:41 | 46.07151 | 16.64190 | 36055 ft | 412 kts | 285° |
| 2026-05-07 10:42 | 46.09029 | 16.56442 | 36054 ft | 412 kts | 285° |
| 2026-05-07 10:42 | 46.10922 | 16.48593 | 36053 ft | 412 kts | 285° |
| 2026-05-07 10:43 | 46.12790 | 16.40843 | 36049 ft | 412 kts | 285° |
| 2026-05-07 10:43 | 46.14664 | 16.33037 | 36048 ft | 412 kts | 284° |
| 2026-05-07 10:44 | 46.16532 | 16.25219 | 36046 ft | 411 kts | 284° |
| 2026-05-07 10:44 | 46.18394 | 16.17419 | 36048 ft | 411 kts | 284° |
| 2026-05-07 10:45 | 46.20252 | 16.09609 | 36044 ft | 411 kts | 284° |
| 2026-05-07 10:45 | 46.22085 | 16.01851 | 36039 ft | 410 kts | 284° |
| 2026-05-07 10:46 | 46.23920 | 15.94045 | 36032 ft | 410 kts | 284° |
| 2026-05-07 10:46 | 46.25746 | 15.86253 | 36026 ft | 409 kts | 284° |
| 2026-05-07 10:47 | 46.28000 | 15.78671 | 36014 ft | 414 kts | 292° |
| 2026-05-07 10:47 | 46.30657 | 15.71280 | 35995 ft | 413 kts | 292° |
| 2026-05-07 10:48 | 46.33296 | 15.63896 | 35992 ft | 413 kts | 292° |
| 2026-05-07 10:48 | 46.35915 | 15.56506 | 35995 ft | 412 kts | 292° |
| 2026-05-07 10:49 | 46.38527 | 15.49112 | 35998 ft | 412 kts | 292° |
| 2026-05-07 10:49 | 46.41139 | 15.41712 | 36002 ft | 412 kts | 292° |
| 2026-05-07 10:50 | 46.43746 | 15.34316 | 36002 ft | 412 kts | 292° |
| 2026-05-07 10:50 | 46.46329 | 15.26971 | 35998 ft | 411 kts | 292° |
| 2026-05-07 10:51 | 46.48934 | 15.19521 | 35997 ft | 411 kts | 291° |
| 2026-05-07 10:51 | 46.51498 | 15.12155 | 36002 ft | 411 kts | 291° |
| 2026-05-07 10:52 | 46.54078 | 15.04749 | 36000 ft | 411 kts | 291° |
| 2026-05-07 10:52 | 46.56650 | 14.97326 | 35997 ft | 410 kts | 291° |
| 2026-05-07 10:53 | 46.59195 | 14.89976 | 35990 ft | 410 kts | 291° |
| 2026-05-07 10:53 | 46.61773 | 14.82533 | 35990 ft | 410 kts | 291° |
| 2026-05-07 10:54 | 46.64332 | 14.75121 | 35987 ft | 410 kts | 291° |
| 2026-05-07 10:54 | 46.66882 | 14.67699 | 35989 ft | 410 kts | 291° |
| 2026-05-07 10:55 | 46.69425 | 14.60265 | 35986 ft | 410 kts | 291° |
| 2026-05-07 10:55 | 46.71947 | 14.52860 | 35994 ft | 410 kts | 291° |
| 2026-05-07 10:56 | 46.74477 | 14.45417 | 35992 ft | 410 kts | 291° |
| 2026-05-07 10:56 | 46.77009 | 14.37963 | 35998 ft | 410 kts | 291° |
| 2026-05-07 10:57 | 46.79538 | 14.30492 | 35993 ft | 410 kts | 290° |
| 2026-05-07 10:57 | 46.82052 | 14.23036 | 35991 ft | 409 kts | 290° |
| 2026-05-07 10:58 | 46.84559 | 14.15575 | 35987 ft | 409 kts | 290° |
| 2026-05-07 10:58 | 46.87065 | 14.08115 | 35995 ft | 409 kts | 290° |
| 2026-05-07 10:59 | 46.89571 | 14.00641 | 35987 ft | 409 kts | 290° |
| 2026-05-07 10:59 | 46.92047 | 13.93219 | 35988 ft | 408 kts | 290° |
| 2026-05-07 11:00 | 46.94534 | 13.85750 | 35987 ft | 408 kts | 290° |
| 2026-05-07 11:00 | 46.97013 | 13.78283 | 35990 ft | 408 kts | 290° |
| 2026-05-07 11:01 | 46.99487 | 13.70813 | 35987 ft | 407 kts | 290° |
| 2026-05-07 11:01 | 47.01947 | 13.63349 | 35989 ft | 407 kts | 289° |
| 2026-05-07 11:02 | 47.04405 | 13.55865 | 35987 ft | 407 kts | 289° |
| 2026-05-07 11:02 | 47.06856 | 13.48378 | 35990 ft | 407 kts | 289° |
| 2026-05-07 11:03 | 47.09301 | 13.40890 | 35963 ft | 406 kts | 289° |
| 2026-05-07 11:03 | 47.11742 | 13.33407 | 35973 ft | 406 kts | 289° |
| 2026-05-07 11:04 | 47.14180 | 13.25926 | 35974 ft | 407 kts | 289° |
| 2026-05-07 11:04 | 47.16612 | 13.18414 | 35974 ft | 407 kts | 289° |
| 2026-05-07 11:05 | 47.19021 | 13.10943 | 35981 ft | 407 kts | 288° |
| 2026-05-07 11:05 | 47.21449 | 13.03412 | 35985 ft | 408 kts | 288° |
| 2026-05-07 11:06 | 47.23877 | 12.95865 | 36003 ft | 408 kts | 288° |
| 2026-05-07 11:06 | 47.26298 | 12.88299 | 36013 ft | 409 kts | 288° |
| 2026-05-07 11:07 | 47.28728 | 12.80697 | 36017 ft | 410 kts | 288° |
| 2026-05-07 11:07 | 47.31147 | 12.73087 | 36020 ft | 411 kts | 288° |
| 2026-05-07 11:08 | 47.33553 | 12.65496 | 36021 ft | 411 kts | 288° |
| 2026-05-07 11:08 | 47.35971 | 12.57866 | 36019 ft | 411 kts | 288° |
| 2026-05-07 11:09 | 47.38390 | 12.50208 | 36022 ft | 412 kts | 288° |
| 2026-05-07 11:09 | 47.40399 | 12.43825 | 36021 ft | 413 kts | 288° |
| 2026-05-07 11:10 | 47.42822 | 12.36118 | 36022 ft | 414 kts | 288° |
| 2026-05-07 11:10 | 47.45159 | 12.28647 | 36020 ft | 415 kts | 288° |
| 2026-05-07 11:11 | 47.47574 | 12.20881 | 36022 ft | 416 kts | 288° |
| 2026-05-07 11:11 | 47.49995 | 12.13092 | 36008 ft | 417 kts | 288° |
| 2026-05-07 11:12 | 47.52417 | 12.05278 | 36014 ft | 418 kts | 288° |
| 2026-05-07 11:12 | 47.54270 | 11.97228 | 36013 ft | 408 kts | 275° |
| 2026-05-07 11:13 | 47.55352 | 11.88968 | 36010 ft | 410 kts | 275° |
| 2026-05-07 11:13 | 47.56440 | 11.80725 | 36009 ft | 410 kts | 275° |
| 2026-05-07 11:14 | 47.57524 | 11.72421 | 36006 ft | 411 kts | 275° |
| 2026-05-07 11:14 | 47.58612 | 11.64090 | 36004 ft | 412 kts | 275° |
| 2026-05-07 11:15 | 47.59693 | 11.55739 | 36005 ft | 413 kts | 275° |
| 2026-05-07 11:15 | 47.60766 | 11.47369 | 36007 ft | 413 kts | 275° |
| 2026-05-07 11:16 | 47.61829 | 11.39044 | 36012 ft | 414 kts | 275° |
| 2026-05-07 11:16 | 47.62899 | 11.30661 | 36014 ft | 414 kts | 275° |
| 2026-05-07 11:17 | 47.63956 | 11.22262 | 36025 ft | 414 kts | 275° |
| 2026-05-07 11:17 | 47.65003 | 11.13859 | 36032 ft | 415 kts | 275° |
| 2026-05-07 11:18 | 47.66052 | 11.05436 | 36042 ft | 415 kts | 275° |
| 2026-05-07 11:18 | 47.67098 | 10.97006 | 36040 ft | 416 kts | 275° |
| 2026-05-07 11:19 | 47.68141 | 10.88610 | 36050 ft | 416 kts | 275° |
| 2026-05-07 11:19 | 47.69179 | 10.80158 | 35986 ft | 416 kts | 275° |
| 2026-05-07 11:20 | 47.69694 | 10.75900 | 35047 ft | 425 kts | 275° |
| 2026-05-07 11:20 | 47.70215 | 10.71539 | 34278 ft | 430 kts | 274° |
| 2026-05-07 11:20 | 47.70738 | 10.67169 | 33619 ft | 429 kts | 274° |
| 2026-05-07 11:20 | 47.71257 | 10.62837 | 33158 ft | 423 kts | 275° |
| 2026-05-07 11:21 | 47.71771 | 10.58574 | 32680 ft | 418 kts | 275° |
| 2026-05-07 11:21 | 47.72281 | 10.54349 | 32202 ft | 414 kts | 275° |
| 2026-05-07 11:21 | 47.72786 | 10.50161 | 31726 ft | 409 kts | 275° |
| 2026-05-07 11:21 | 47.73279 | 10.46026 | 31266 ft | 405 kts | 275° |
| 2026-05-07 11:22 | 47.73763 | 10.41913 | 30801 ft | 401 kts | 275° |
| 2026-05-07 11:22 | 47.74241 | 10.37847 | 30349 ft | 398 kts | 275° |
| 2026-05-07 11:22 | 47.74530 | 10.33822 | 30049 ft | 385 kts | 266° |
| 2026-05-07 11:22 | 47.74463 | 10.29904 | 30022 ft | 377 kts | 264° |
| 2026-05-07 11:23 | 47.74376 | 10.26002 | 29538 ft | 380 kts | 264° |
| 2026-05-07 11:23 | 47.74285 | 10.22025 | 28502 ft | 389 kts | 264° |
| 2026-05-07 11:23 | 47.74191 | 10.17981 | 27760 ft | 391 kts | 264° |
| 2026-05-07 11:23 | 47.74097 | 10.13958 | 27242 ft | 387 kts | 264° |
| 2026-05-07 11:24 | 47.74005 | 10.09982 | 26728 ft | 384 kts | 264° |
| 2026-05-07 11:24 | 47.73911 | 10.06014 | 26211 ft | 382 kts | 264° |
| 2026-05-07 11:24 | 47.73815 | 10.02085 | 25704 ft | 380 kts | 264° |
| 2026-05-07 11:24 | 47.73723 | 9.98264 | 25210 ft | 378 kts | 264° |
| 2026-05-07 11:25 | 47.73631 | 9.94404 | 24712 ft | 378 kts | 264° |
| 2026-05-07 11:25 | 47.73538 | 9.90558 | 24218 ft | 377 kts | 265° |
| 2026-05-07 11:25 | 47.73440 | 9.86671 | 23714 ft | 377 kts | 264° |
| 2026-05-07 11:25 | 47.73341 | 9.82776 | 23159 ft | 377 kts | 265° |
| 2026-05-07 11:26 | 47.73241 | 9.78910 | 22694 ft | 373 kts | 265° |
| 2026-05-07 11:26 | 47.73139 | 9.75073 | 22224 ft | 369 kts | 265° |
| 2026-05-07 11:26 | 47.73035 | 9.71274 | 21712 ft | 367 kts | 265° |
| 2026-05-07 11:26 | 47.72930 | 9.67498 | 21200 ft | 364 kts | 265° |
| 2026-05-07 11:27 | 47.72824 | 9.63755 | 20798 ft | 360 kts | 265° |
| 2026-05-07 11:27 | 47.72718 | 9.60052 | 20291 ft | 358 kts | 265° |
| 2026-05-07 11:27 | 47.72612 | 9.56371 | 19766 ft | 357 kts | 265° |
| 2026-05-07 11:27 | 47.72508 | 9.52714 | 19332 ft | 353 kts | 265° |
| 2026-05-07 11:28 | 47.72403 | 9.49076 | 18869 ft | 350 kts | 265° |
| 2026-05-07 11:28 | 47.72194 | 9.45489 | 18353 ft | 347 kts | 257° |
| 2026-05-07 11:28 | 47.71477 | 9.42106 | 17819 ft | 343 kts | 244° |
| 2026-05-07 11:28 | 47.70243 | 9.39117 | 17355 ft | 338 kts | 231° |
| 2026-05-07 11:29 | 47.68757 | 9.36416 | 16860 ft | 336 kts | 230° |
| 2026-05-07 11:29 | 47.67287 | 9.33749 | 16410 ft | 332 kts | 230° |
| 2026-05-07 11:29 | 47.65850 | 9.31133 | 15966 ft | 329 kts | 230° |
| 2026-05-07 11:29 | 47.64412 | 9.28518 | 15517 ft | 326 kts | 230° |
| 2026-05-07 11:30 | 47.62984 | 9.25926 | 15075 ft | 323 kts | 230° |
| 2026-05-07 11:30 | 47.61564 | 9.23354 | 14641 ft | 321 kts | 230° |
| 2026-05-07 11:30 | 47.60199 | 9.20769 | 14210 ft | 318 kts | 236° |
| 2026-05-07 11:30 | 47.59219 | 9.17828 | 13771 ft | 318 kts | 250° |
| 2026-05-07 11:31 | 47.58731 | 9.14640 | 13311 ft | 318 kts | 258° |
| 2026-05-07 11:31 | 47.58346 | 9.11426 | 12878 ft | 315 kts | 257° |
| 2026-05-07 11:31 | 47.57959 | 9.08286 | 12715 ft | 305 kts | 257° |
| 2026-05-07 11:31 | 47.57579 | 9.05250 | 12578 ft | 294 kts | 257° |
| 2026-05-07 11:32 | 47.57760 | 8.99609 | 12312 ft | 273 kts | 292° |
| 2026-05-07 11:32 | 47.58854 | 8.97313 | 12091 ft | 275 kts | 314° |
| 2026-05-07 11:32 | 47.60468 | 8.95798 | 11838 ft | 278 kts | 337° |
| 2026-05-07 11:33 | 47.62363 | 8.95306 | 11650 ft | 279 kts | 0° |
| 2026-05-07 11:33 | 47.64255 | 8.95898 | 11375 ft | 280 kts | 24° |
| 2026-05-07 11:33 | 47.65847 | 8.97513 | 11083 ft | 278 kts | 47° |
| 2026-05-07 11:33 | 47.66892 | 8.99888 | 10805 ft | 275 kts | 71° |
| 2026-05-07 11:34 | 47.67257 | 9.02635 | 10543 ft | 270 kts | 93° |
| 2026-05-07 11:34 | 47.67128 | 9.05361 | 10261 ft | 268 kts | 99° |
| 2026-05-07 11:34 | 47.66889 | 9.08093 | 9989 ft | 267 kts | 101° |
| 2026-05-07 11:34 | 47.66611 | 9.10850 | 9704 ft | 266 kts | 101° |
| 2026-05-07 11:35 | 47.66334 | 9.13522 | 9426 ft | 265 kts | 101° |
| 2026-05-07 11:35 | 47.66057 | 9.16249 | 9126 ft | 264 kts | 100° |
| 2026-05-07 11:35 | 47.65707 | 9.18909 | 8847 ft | 261 kts | 112° |
| 2026-05-07 11:35 | 47.64846 | 9.21195 | 8627 ft | 256 kts | 133° |
| 2026-05-07 11:36 | 47.63513 | 9.22872 | 8351 ft | 250 kts | 153° |
| 2026-05-07 11:36 | 47.61893 | 9.23734 | 8039 ft | 246 kts | 173° |
| 2026-05-07 11:36 | 47.60195 | 9.23714 | 7742 ft | 243 kts | 193° |
| 2026-05-07 11:36 | 47.58628 | 9.22850 | 7452 ft | 241 kts | 212° |
| 2026-05-07 11:37 | 47.57359 | 9.21260 | 7156 ft | 239 kts | 232° |
| 2026-05-07 11:37 | 47.56536 | 9.19149 | 7038 ft | 238 kts | 250° |
| 2026-05-07 11:37 | 47.56224 | 9.16733 | 7041 ft | 241 kts | 269° |
| 2026-05-07 11:37 | 47.56395 | 9.14260 | 7046 ft | 243 kts | 277° |
| 2026-05-07 11:38 | 47.56634 | 9.11782 | 7043 ft | 243 kts | 277° |
| 2026-05-07 11:38 | 47.56867 | 9.09310 | 7041 ft | 242 kts | 276° |
| 2026-05-07 11:38 | 47.57100 | 9.06835 | 7041 ft | 242 kts | 277° |
| 2026-05-07 11:38 | 47.57568 | 9.04340 | 7043 ft | 265 kts | 291° |
| 2026-05-07 11:39 | 47.58335 | 9.01822 | 7036 ft | 260 kts | 294° |
| 2026-05-07 11:39 | 47.59080 | 8.99498 | 7035 ft | 247 kts | 294° |
| 2026-05-07 11:39 | 47.59802 | 8.97265 | 7038 ft | 233 kts | 294° |
| 2026-05-07 11:39 | 47.60503 | 8.95109 | 7038 ft | 232 kts | 294° |
| 2026-05-07 11:40 | 47.61188 | 8.93005 | 7037 ft | 223 kts | 294° |
| 2026-05-07 11:40 | 47.61861 | 8.90943 | 7038 ft | 221 kts | 294° |
| 2026-05-07 11:40 | 47.62534 | 8.88884 | 7042 ft | 222 kts | 294° |
| 2026-05-07 11:40 | 47.63206 | 8.86823 | 7037 ft | 221 kts | 294° |
| 2026-05-07 11:41 | 47.63876 | 8.84768 | 7041 ft | 221 kts | 294° |
| 2026-05-07 11:41 | 47.64544 | 8.82711 | 7036 ft | 221 kts | 294° |
| 2026-05-07 11:41 | 47.65207 | 8.80648 | 7041 ft | 221 kts | 293° |
| 2026-05-07 11:41 | 47.65870 | 8.78587 | 7042 ft | 221 kts | 294° |
| 2026-05-07 11:42 | 47.66534 | 8.76526 | 7041 ft | 221 kts | 294° |
| 2026-05-07 11:42 | 47.67197 | 8.74464 | 7038 ft | 221 kts | 294° |
| 2026-05-07 11:42 | 47.67857 | 8.72408 | 7043 ft | 221 kts | 294° |
| 2026-05-07 11:42 | 47.68511 | 8.70370 | 7049 ft | 221 kts | 294° |
| 2026-05-07 11:43 | 47.69174 | 8.68310 | 7051 ft | 221 kts | 294° |
| 2026-05-07 11:43 | 47.69837 | 8.66245 | 7050 ft | 221 kts | 294° |
| 2026-05-07 11:43 | 47.70497 | 8.64190 | 7053 ft | 221 kts | 294° |
| 2026-05-07 11:43 | 47.71083 | 8.62083 | 7040 ft | 219 kts | 280° |
| 2026-05-07 11:44 | 47.71073 | 8.59843 | 6900 ft | 220 kts | 253° |
| 2026-05-07 11:44 | 47.70341 | 8.57935 | 6796 ft | 215 kts | 226° |
| 2026-05-07 11:44 | 47.69254 | 8.56372 | 6745 ft | 218 kts | 225° |
| 2026-05-07 11:44 | 47.68162 | 8.54813 | 6579 ft | 217 kts | 225° |
| 2026-05-07 11:45 | 47.67073 | 8.53256 | 6318 ft | 217 kts | 225° |
| 2026-05-07 11:45 | 47.65989 | 8.51705 | 6037 ft | 215 kts | 225° |
| 2026-05-07 11:45 | 47.64913 | 8.50165 | 5754 ft | 215 kts | 225° |
| 2026-05-07 11:45 | 47.63841 | 8.48632 | 5475 ft | 214 kts | 226° |
| 2026-05-07 11:46 | 47.62767 | 8.47101 | 5191 ft | 213 kts | 226° |
| 2026-05-07 11:46 | 47.61696 | 8.45581 | 4925 ft | 213 kts | 226° |
| 2026-05-07 11:46 | 47.60630 | 8.44065 | 4637 ft | 212 kts | 226° |
| 2026-05-07 11:46 | 47.59565 | 8.42545 | 4355 ft | 213 kts | 226° |
| 2026-05-07 11:47 | 47.58370 | 8.41267 | 4086 ft | 215 kts | 198° |
| 2026-05-07 11:47 | 47.56920 | 8.41389 | 3856 ft | 218 kts | 155° |
| 2026-05-07 11:47 | 47.55817 | 8.42910 | 3600 ft | 219 kts | 127° |
| 2026-05-07 11:47 | 47.54828 | 8.44566 | 3320 ft | 210 kts | 138° |
| 2026-05-07 11:48 | 47.53889 | 8.45853 | 3079 ft | 198 kts | 138° |
| 2026-05-07 11:48 | 47.52845 | 8.47270 | 2799 ft | 185 kts | 139° |
| 2026-05-07 11:48 | 47.51922 | 8.48529 | 2527 ft | 176 kts | 139° |
| 2026-05-07 11:48 | 47.51075 | 8.49688 | 2257 ft | 160 kts | 139° |
| 2026-05-07 11:49 | 47.50293 | 8.50755 | 2030 ft | 154 kts | 139° |
| 2026-05-07 11:49 | 47.49516 | 8.51817 | 1806 ft | 150 kts | 138° |
| 2026-05-07 11:49 | 47.48756 | 8.52855 | 1618 ft | 148 kts | 137° |
| 2026-05-07 11:49 | 47.48002 | 8.53885 | 1417 ft | 147 kts | 137° |
| 2026-05-07 11:50 | 47.47367 | 8.54751 | 1402 ft | 106 kts | 137° |
| 2026-05-07 11:50 | 47.46939 | 8.55331 | 1405 ft | 65 kts | 138° |
| 2026-05-07 11:50 | 47.46619 | 8.55686 | 1402 ft | 58 kts | 160° |
| 2026-05-07 11:50 | 47.46367 | 8.55787 | 1406 ft | 16 kts | 125° |
| 2026-05-07 11:51 | 47.46349 | 8.55813 | 1404 ft | 0 kts | 137° |